Time;durP1;ratioP1;P1;durP2;ratioP2;P2;SDS_P1;SDS_P2;PMS_P1;PMS_P2;Temp;Humidity;BMP_temperature;BMP_pressure;BME280_temperature;BME280_humidity;BME280_pressure;Samples;Min_cycle;Max_cycle;Signal;HPM_P1;HPM_P2
2021/07/21 00:00:51;;;;;;;10.88;8.13;;;13.70;99.10;;;;;;4890948;29;20045;-76
2021/07/21 00:03:21;;;;;;;10.52;7.30;;;13.70;98.80;;;;;;4889316;29;21595;-76
2021/07/21 00:05:48;;;;;;;11.13;7.17;;;13.60;98.80;;;;;;4891458;29;20055;-78
2021/07/21 00:08:14;;;;;;;8.93;6.53;;;13.50;99.00;;;;;;4886199;29;20575;-78
2021/07/21 00:10:41;;;;;;;10.60;7.90;;;13.60;99.20;;;;;;4890181;29;20044;-79
2021/07/21 00:16:07;;;;;;;9.35;6.88;;;13.60;99.20;;;;;;4898737;29;20087;-79
2021/07/21 00:21:11;;;;;;;11.30;8.18;;;13.60;99.10;;;;;;4891426;29;20127;-78
2021/07/21 00:23:44;;;;;;;9.32;6.80;;;13.60;99.10;;;;;;4907042;29;20063;-79
2021/07/21 00:26:10;;;;;;;14.45;8.88;;;13.60;99.10;;;;;;4892053;29;20048;-79
2021/07/21 00:28:39;;;;;;;12.73;9.30;;;13.60;99.20;;;;;;4895294;29;20630;-79
2021/07/21 00:31:05;;;;;;;15.32;10.07;;;13.60;99.10;;;;;;4891888;29;20048;-79
2021/07/21 00:33:34;;;;;;;15.70;9.52;;;13.50;99.20;;;;;;4891035;29;20380;-79
2021/07/21 00:36:00;;;;;;;14.25;10.18;;;13.50;99.40;;;;;;4891146;29;20067;-80
2021/07/21 00:38:26;;;;;;;15.38;9.20;;;13.50;99.50;;;;;;4864209;29;20448;-79
2021/07/21 00:40:52;;;;;;;19.05;10.85;;;13.40;99.50;;;;;;4873076;29;20047;-79
2021/07/21 00:43:18;;;;;;;18.50;10.55;;;13.40;99.60;;;;;;4894655;29;20483;-79
2021/07/21 00:45:44;;;;;;;15.18;8.70;;;13.30;99.70;;;;;;4893418;29;20043;-79
2021/07/21 00:48:10;;;;;;;12.10;8.73;;;13.30;99.90;;;;;;4890975;29;20436;-79
2021/07/21 00:50:36;;;;;;;11.32;8.60;;;13.30;99.90;;;;;;4896905;29;20044;-79
2021/07/21 00:53:02;;;;;;;12.30;9.23;;;13.30;99.90;;;;;;4877061;29;20048;-80
2021/07/21 00:55:28;;;;;;;14.27;10.25;;;13.30;99.90;;;;;;4877011;29;20036;-79
2021/07/21 00:57:57;;;;;;;14.50;9.75;;;13.30;99.90;;;;;;4889235;29;20046;-79
2021/07/21 01:00:23;;;;;;;11.48;8.48;;;13.20;99.80;;;;;;4895287;29;20040;-79
2021/07/21 01:02:50;;;;;;;17.85;10.27;;;13.20;99.80;;;;;;4874148;29;20043;-79
2021/07/21 01:05:27;;;;;;;12.18;9.25;;;13.20;99.80;;;;;;4896070;29;20148;-78
2021/07/21 01:07:53;;;;;;;11.95;8.85;;;13.10;99.90;;;;;;4911687;29;20087;-79
2021/07/21 01:10:22;;;;;;;16.02;10.00;;;13.10;99.90;;;;;;4905302;29;20049;-79
2021/07/21 01:13:10;;;;;;;16.65;10.50;;;13.10;99.90;;;;;;4911111;29;20143;-79
2021/07/21 01:15:45;;;;;;;12.63;8.45;;;13.00;99.90;;;;;;4905951;29;20078;-79
2021/07/21 01:18:32;;;;;;;16.90;11.43;;;13.00;99.90;;;;;;4893573;29;20139;-78
2021/07/21 01:21:33;;;;;;;12.68;8.80;;;13.00;99.90;;;;;;4908880;29;20175;-79
2021/07/21 01:24:27;;;;;;;14.75;9.52;;;13.00;99.90;;;;;;4907452;29;20202;-78
2021/07/21 01:26:56;;;;;;;11.18;8.50;;;12.90;99.90;;;;;;4909533;29;20124;-79
2021/07/21 01:29:26;;;;;;;13.35;9.05;;;12.90;99.90;;;;;;4911572;29;20044;-78
2021/07/21 01:31:56;;;;;;;11.02;8.10;;;12.90;99.90;;;;;;4912056;29;20040;-79
2021/07/21 01:34:28;;;;;;;12.50;7.97;;;13.00;99.90;;;;;;4877895;29;20059;-79
2021/07/21 01:36:56;;;;;;;11.45;8.60;;;12.90;99.90;;;;;;4886737;29;20308;-79
2021/07/21 01:39:28;;;;;;;12.60;8.23;;;12.90;99.90;;;;;;4891442;29;20032;-78
2021/07/21 01:41:59;;;;;;;11.25;8.70;;;12.90;99.90;;;;;;4894025;29;20056;-78
2021/07/21 01:44:29;;;;;;;11.52;8.48;;;12.90;99.90;;;;;;4890357;29;20044;-78
2021/07/21 01:47:00;;;;;;;9.55;7.40;;;12.90;99.90;;;;;;4894745;29;20115;-79
2021/07/21 01:49:30;;;;;;;12.18;8.93;;;12.90;99.90;;;;;;4889394;29;20487;-78
2021/07/21 01:51:58;;;;;;;10.23;7.82;;;12.80;99.90;;;;;;4879365;29;20044;-79
2021/07/21 01:54:26;;;;;;;10.13;7.40;;;12.80;99.90;;;;;;4897412;29;20065;-79
2021/07/21 01:56:52;;;;;;;10.93;7.82;;;12.80;99.90;;;;;;4891081;29;20115;-78
2021/07/21 01:59:21;;;;;;;13.10;8.27;;;12.70;99.90;;;;;;4892252;29;20047;-79
2021/07/21 02:01:47;;;;;;;11.10;8.20;;;12.70;99.90;;;;;;4887930;29;20673;-79
2021/07/21 02:04:14;;;;;;;13.25;8.98;;;12.60;99.90;;;;;;4893649;29;20488;-78
2021/07/21 02:06:41;;;;;;;16.75;9.60;;;12.60;99.90;;;;;;4871844;29;20056;-79
2021/07/21 02:09:10;;;;;;;13.55;9.95;;;12.60;99.90;;;;;;4910103;29;20032;-78
2021/07/21 02:11:38;;;;;;;12.07;8.73;;;12.60;99.90;;;;;;4900889;29;20076;-79
2021/07/21 02:14:18;;;;;;;14.00;10.60;;;12.60;99.90;;;;;;4904135;29;20096;-78
2021/07/21 02:16:47;;;;;;;14.43;10.52;;;12.60;99.90;;;;;;4876208;29;20480;-79
2021/07/21 02:19:16;;;;;;;16.48;10.98;;;12.70;99.90;;;;;;4901117;29;20124;-78
2021/07/21 02:21:44;;;;;;;15.63;11.05;;;12.70;99.90;;;;;;4874838;29;20052;-78
2021/07/21 02:24:10;;;;;;;15.88;10.68;;;12.70;99.90;;;;;;4892473;29;20044;-79
2021/07/21 02:26:39;;;;;;;15.40;10.52;;;12.70;99.90;;;;;;4866302;29;20055;-78
2021/07/21 02:29:06;;;;;;;16.10;11.02;;;12.80;99.90;;;;;;4894417;29;20193;-79
2021/07/21 02:32:04;;;;;;;14.65;10.98;;;12.80;99.90;;;;;;4897712;29;20051;-78
2021/07/21 02:34:30;;;;;;;15.20;10.65;;;12.80;99.90;;;;;;4891880;29;20063;-78
2021/07/21 02:36:57;;;;;;;15.88;10.40;;;12.80;99.90;;;;;;4900564;29;20040;-78
2021/07/21 02:39:24;;;;;;;16.65;12.05;;;12.90;99.90;;;;;;4897760;29;20036;-78
2021/07/21 02:41:50;;;;;;;19.63;12.25;;;13.00;99.90;;;;;;4917945;29;20071;-78
2021/07/21 02:44:20;;;;;;;19.25;12.95;;;13.00;99.90;;;;;;4893748;29;20046;-78
2021/07/21 02:46:47;;;;;;;17.95;12.38;;;13.00;99.90;;;;;;4882701;29;20044;-76
2021/07/21 02:49:22;;;;;;;19.55;12.82;;;13.00;99.90;;;;;;4882881;29;20044;-76
2021/07/21 02:51:54;;;;;;;21.30;13.10;;;13.10;99.90;;;;;;4921586;29;20040;-76
2021/07/21 02:54:43;;;;;;;20.15;13.02;;;13.10;99.90;;;;;;4917915;29;20039;-76
2021/07/21 02:57:21;;;;;;;17.60;11.80;;;13.10;99.90;;;;;;4912359;29;20037;-76
2021/07/21 02:59:51;;;;;;;18.20;12.38;;;13.20;99.90;;;;;;4876402;29;20040;-76
2021/07/21 03:02:22;;;;;;;18.75;11.95;;;13.20;99.90;;;;;;4893458;29;20079;-76
2021/07/21 03:04:50;;;;;;;16.05;12.00;;;13.30;99.90;;;;;;4885708;29;20134;-76
2021/07/21 03:07:18;;;;;;;15.88;11.50;;;13.30;99.90;;;;;;4905504;29;20126;-76
2021/07/21 03:09:45;;;;;;;16.52;10.55;;;13.40;99.90;;;;;;4909241;29;20719;-75
2021/07/21 03:12:16;;;;;;;15.57;11.23;;;13.40;99.90;;;;;;4907352;29;20040;-75
2021/07/21 03:14:44;;;;;;;14.27;9.50;;;13.40;99.90;;;;;;4884604;29;20040;-75
2021/07/21 03:17:13;;;;;;;13.40;9.50;;;13.40;99.90;;;;;;4891108;29;20139;-75
2021/07/21 03:19:47;;;;;;;13.32;9.60;;;13.40;99.90;;;;;;4903884;29;20099;-75
2021/07/21 03:22:16;;;;;;;19.05;11.45;;;13.40;99.90;;;;;;4904238;29;20058;-75
2021/07/21 03:24:44;;;;;;;17.27;12.32;;;13.30;99.90;;;;;;4888919;29;20107;-76
2021/07/21 03:27:11;;;;;;;20.08;12.38;;;13.30;99.90;;;;;;4910156;29;20056;-76
2021/07/21 03:29:40;;;;;;;21.83;13.00;;;13.30;99.90;;;;;;4910121;29;20075;-75
2021/07/21 03:32:07;;;;;;;18.60;13.07;;;13.20;99.90;;;;;;4903199;29;20107;-75
2021/07/21 03:34:36;;;;;;;19.40;12.63;;;13.40;99.90;;;;;;4890047;29;20087;-75
2021/07/21 03:37:10;;;;;;;21.63;13.80;;;13.40;99.90;;;;;;4908628;29;20435;-79
2021/07/21 03:39:37;;;;;;;21.88;14.45;;;13.50;99.90;;;;;;4903801;29;20064;-77
2021/07/21 03:42:05;;;;;;;24.67;15.43;;;13.60;99.90;;;;;;4902714;29;20036;-77
2021/07/21 03:44:31;;;;;;;27.63;17.10;;;13.60;99.90;;;;;;4875704;29;20111;-77
2021/07/21 03:46:58;;;;;;;24.13;14.45;;;13.70;99.90;;;;;;4878276;29;20044;-77
2021/07/21 03:49:27;;;;;;;16.60;11.95;;;13.70;99.90;;;;;;4870020;29;20044;-78
2021/07/21 03:51:53;;;;;;;16.45;11.98;;;13.70;99.90;;;;;;4882277;29;20088;-77
2021/07/21 03:54:21;;;;;;;17.52;11.57;;;13.80;99.90;;;;;;4908741;29;20036;-77
2021/07/21 03:56:48;;;;;;;19.25;12.90;;;13.90;99.90;;;;;;4906348;29;20069;-78
2021/07/21 03:59:17;;;;;;;22.42;14.63;;;13.90;99.90;;;;;;4874386;29;20418;-78
2021/07/21 04:01:45;;;;;;;24.10;15.63;;;14.00;99.90;;;;;;4891431;29;20036;-78
2021/07/21 04:04:14;;;;;;;23.75;15.20;;;14.00;99.90;;;;;;4893947;29;20071;-78
2021/07/21 04:06:41;;;;;;;23.88;15.70;;;14.00;99.90;;;;;;4889418;29;20048;-79
2021/07/21 04:09:12;;;;;;;23.92;14.73;;;14.00;99.90;;;;;;4895044;29;20052;-78
2021/07/21 04:11:41;;;;;;;22.40;13.60;;;14.00;99.90;;;;;;4901308;29;20044;-78
2021/07/21 04:14:10;;;;;;;25.15;15.95;;;14.10;99.90;;;;;;4877937;29;20534;-79
2021/07/21 04:16:37;;;;;;;26.90;15.18;;;14.00;99.90;;;;;;4907495;29;20135;-78
2021/07/21 04:19:06;;;;;;;23.05;14.40;;;14.10;99.90;;;;;;4878182;29;20051;-78
2021/07/21 04:21:32;;;;;;;18.88;13.07;;;14.10;99.90;;;;;;4889690;29;20056;-78
2021/07/21 04:24:00;;;;;;;21.52;13.68;;;14.10;99.90;;;;;;4892626;29;20384;-78
2021/07/21 04:26:26;;;;;;;20.48;14.27;;;14.20;99.90;;;;;;4893089;29;20055;-78
2021/07/21 04:28:54;;;;;;;16.30;11.57;;;14.20;99.90;;;;;;4890352;29;20048;-78
2021/07/21 04:31:27;;;;;;;15.27;10.57;;;14.30;99.90;;;;;;4911039;29;20068;-77
2021/07/21 04:34:04;;;;;;;15.32;10.00;;;14.30;99.90;;;;;;4911303;29;20052;-79
2021/07/21 04:36:30;;;;;;;16.48;11.55;;;14.40;99.90;;;;;;4890577;29;20048;-78
2021/07/21 04:38:57;;;;;;;19.42;13.98;;;14.40;99.90;;;;;;4872432;29;20083;-78
2021/07/21 04:41:24;;;;;;;19.45;13.32;;;14.40;99.90;;;;;;4876850;29;20096;-78
2021/07/21 04:43:50;;;;;;;20.45;14.07;;;14.40;99.90;;;;;;4873899;29;20040;-78
2021/07/21 04:46:18;;;;;;;21.92;14.27;;;14.40;99.90;;;;;;4892598;29;20469;-79
2021/07/21 04:48:44;;;;;;;23.27;15.02;;;14.50;99.90;;;;;;4886729;29;20051;-79
2021/07/21 04:51:12;;;;;;;23.08;15.73;;;14.50;99.90;;;;;;4894193;29;20067;-78
2021/07/21 04:53:41;;;;;;;23.92;16.30;;;14.50;99.90;;;;;;4888923;29;20063;-79
2021/07/21 04:56:07;;;;;;;28.73;17.08;;;14.50;99.90;;;;;;4878780;29;20044;-79
2021/07/21 04:58:33;;;;;;;20.33;13.48;;;14.60;99.90;;;;;;4911399;29;20068;-80
2021/07/21 05:00:59;;;;;;;20.35;15.15;;;14.60;99.90;;;;;;4915610;29;20706;-79
2021/07/21 05:03:24;;;;;;;24.20;16.70;;;14.60;99.90;;;;;;4892821;29;20044;-79
2021/07/21 05:05:50;;;;;;;20.23;15.00;;;14.80;99.90;;;;;;4889333;29;20036;-79
2021/07/21 05:08:16;;;;;;;29.25;17.13;;;14.80;99.90;;;;;;4877801;29;20408;-79
2021/07/21 05:10:44;;;;;;;28.88;18.30;;;14.80;99.90;;;;;;4874933;29;20476;-79
2021/07/21 05:13:10;;;;;;;30.05;18.30;;;14.90;99.90;;;;;;4904177;29;20044;-78
2021/07/21 05:15:36;;;;;;;19.17;13.32;;;14.90;99.90;;;;;;4892834;29;21293;-79
2021/07/21 05:18:02;;;;;;;27.73;16.52;;;14.90;99.90;;;;;;4910871;29;20546;-79
2021/07/21 05:20:29;;;;;;;20.85;15.25;;;14.90;99.90;;;;;;4890839;29;20048;-79
2021/07/21 05:22:55;;;;;;;23.70;15.63;;;14.90;99.90;;;;;;4909298;29;20157;-79
2021/07/21 05:25:21;;;;;;;20.67;14.77;;;15.00;99.90;;;;;;4890851;29;20046;-78
2021/07/21 05:27:47;;;;;;;21.67;14.95;;;15.00;99.90;;;;;;4892889;29;20040;-79
2021/07/21 05:30:15;;;;;;;22.25;15.15;;;15.10;99.90;;;;;;4887316;29;20078;-78
2021/07/21 05:32:41;;;;;;;21.77;14.75;;;15.20;99.90;;;;;;4906702;29;20124;-79
2021/07/21 05:35:09;;;;;;;21.13;15.75;;;15.20;99.90;;;;;;4890847;29;20096;-78
2021/07/21 05:37:36;;;;;;;23.58;14.93;;;15.30;99.90;;;;;;4905879;29;20078;-79
2021/07/21 05:40:03;;;;;;;23.95;16.08;;;15.40;99.90;;;;;;4903996;29;20044;-79
2021/07/21 05:42:30;;;;;;;26.10;16.83;;;15.50;99.90;;;;;;4888173;29;20051;-79
2021/07/21 05:44:56;;;;;;;23.77;17.25;;;15.60;99.90;;;;;;4904876;29;20044;-79
2021/07/21 05:47:22;;;;;;;26.17;16.33;;;15.60;99.90;;;;;;4889772;29;20075;-79
2021/07/21 05:49:48;;;;;;;23.85;16.05;;;15.70;99.90;;;;;;4855717;29;20080;-79
2021/07/21 05:52:14;;;;;;;24.25;16.83;;;15.80;99.90;;;;;;4889838;29;20052;-78
2021/07/21 05:54:41;;;;;;;21.38;15.52;;;15.80;99.90;;;;;;4879153;29;20044;-78
2021/07/21 05:57:07;;;;;;;25.60;16.38;;;15.90;99.90;;;;;;4865191;29;20511;-78
2021/07/21 05:59:34;;;;;;;24.95;16.27;;;15.90;99.90;;;;;;4893450;29;20096;-78
2021/07/21 06:02:00;;;;;;;23.25;15.55;;;16.00;99.90;;;;;;4914977;29;20044;-78
2021/07/21 06:04:26;;;;;;;23.05;16.23;;;16.00;99.90;;;;;;4878036;29;20399;-78
2021/07/21 06:06:56;;;;;;;25.45;17.25;;;16.10;99.90;;;;;;4890126;29;20110;-79
2021/07/21 06:09:22;;;;;;;22.35;15.43;;;16.20;99.90;;;;;;4888356;29;20071;-78
2021/07/21 06:11:48;;;;;;;17.23;12.88;;;16.30;99.90;;;;;;4893261;29;20040;-78
2021/07/21 06:14:17;;;;;;;21.45;14.15;;;16.30;99.90;;;;;;4886426;29;20491;-78
2021/07/21 06:16:43;;;;;;;19.27;14.38;;;16.40;99.90;;;;;;4875865;29;20040;-79
2021/07/21 06:19:09;;;;;;;20.92;15.63;;;16.50;99.90;;;;;;4889367;29;20734;-78
2021/07/21 06:21:35;;;;;;;17.60;14.02;;;16.60;99.90;;;;;;4876989;29;20040;-78
2021/07/21 06:24:01;;;;;;;19.77;13.63;;;16.70;99.90;;;;;;4893477;29;21705;-78
2021/07/21 06:26:28;;;;;;;23.35;14.90;;;16.70;99.90;;;;;;4912597;29;21635;-77
2021/07/21 06:28:54;;;;;;;17.45;14.13;;;16.90;99.90;;;;;;4911521;29;20067;-76
2021/07/21 06:31:19;;;;;;;16.02;11.88;;;17.00;99.90;;;;;;4909254;29;21405;-76
2021/07/21 06:33:45;;;;;;;22.92;14.88;;;17.00;99.90;;;;;;4891061;29;20036;-76
2021/07/21 06:36:15;;;;;;;22.23;15.77;;;17.10;99.90;;;;;;4906371;29;20063;-78
2021/07/21 06:38:41;;;;;;;18.60;13.43;;;17.20;99.90;;;;;;4890599;29;20092;-79
2021/07/21 06:41:07;;;;;;;20.17;14.50;;;17.30;99.90;;;;;;4873798;29;20036;-79
2021/07/21 06:43:33;;;;;;;21.98;14.38;;;17.40;99.90;;;;;;4856723;29;20055;-78
2021/07/21 06:46:00;;;;;;;20.08;14.88;;;17.50;99.90;;;;;;4891090;29;20040;-78
2021/07/21 06:48:28;;;;;;;19.27;13.85;;;17.50;99.90;;;;;;4894013;29;20139;-79
2021/07/21 06:50:54;;;;;;;20.05;14.55;;;17.60;99.90;;;;;;4877048;29;20048;-77
2021/07/21 06:53:20;;;;;;;18.75;14.23;;;17.70;99.90;;;;;;4873950;29;20088;-78
2021/07/21 06:55:46;;;;;;;20.08;13.10;;;17.70;99.70;;;;;;4910546;29;20099;-77
2021/07/21 06:58:12;;;;;;;16.20;12.77;;;17.80;99.60;;;;;;4904227;29;20053;-79
2021/07/21 07:00:38;;;;;;;22.38;14.38;;;17.80;99.50;;;;;;4869064;29;20044;-79
2021/07/21 07:03:04;;;;;;;16.33;12.55;;;17.90;99.40;;;;;;4857584;29;20040;-79
2021/07/21 07:05:30;;;;;;;16.05;13.18;;;18.10;99.20;;;;;;4899604;29;20581;-81
2021/07/21 07:07:56;;;;;;;16.85;12.93;;;18.20;98.70;;;;;;4855587;29;20064;-80
2021/07/21 07:10:22;;;;;;;17.40;13.05;;;18.40;98.00;;;;;;4911845;29;20551;-79
2021/07/21 07:12:48;;;;;;;15.63;11.18;;;18.50;97.50;;;;;;4886194;29;20167;-78
2021/07/21 07:15:14;;;;;;;12.23;9.82;;;18.70;97.20;;;;;;4892722;29;20040;-79
2021/07/21 07:17:40;;;;;;;12.80;9.80;;;18.80;96.60;;;;;;4878516;29;20783;-79
2021/07/21 07:20:11;;;;;;;10.65;9.00;;;18.90;96.20;;;;;;4885446;29;20566;-79
2021/07/21 07:22:37;;;;;;;11.57;9.57;;;19.00;95.00;;;;;;4916971;29;20095;-79
2021/07/21 07:25:04;;;;;;;10.60;8.63;;;19.00;95.10;;;;;;4860133;29;20090;-79
2021/07/21 07:27:30;;;;;;;13.45;8.98;;;19.10;95.10;;;;;;4866841;29;20044;-79
2021/07/21 07:29:57;;;;;;;12.55;8.48;;;19.10;94.80;;;;;;4886113;29;20063;-78
2021/07/21 07:32:23;;;;;;;11.35;8.90;;;19.10;94.70;;;;;;4900127;29;20043;-79
2021/07/21 07:34:49;;;;;;;13.30;9.55;;;19.20;94.60;;;;;;4893937;29;20120;-78
2021/07/21 07:37:15;;;;;;;12.27;9.02;;;19.30;94.60;;;;;;4876171;29;20044;-78
2021/07/21 07:39:41;;;;;;;12.07;10.05;;;19.40;94.20;;;;;;4894482;29;20047;-79
2021/07/21 07:42:07;;;;;;;12.00;9.43;;;19.50;93.70;;;;;;4897710;29;20048;-78
2021/07/21 07:44:34;;;;;;;14.07;9.18;;;19.60;93.90;;;;;;4892741;29;20056;-78
2021/07/21 07:47:01;;;;;;;10.48;8.02;;;19.80;94.30;;;;;;4883324;29;20527;-79
2021/07/21 07:49:26;;;;;;;12.15;8.05;;;20.00;93.70;;;;;;4877340;29;20071;-80
2021/07/21 07:51:52;;;;;;;12.40;8.43;;;20.30;92.90;;;;;;4896353;29;20078;-79
2021/07/21 07:54:20;;;;;;;11.30;7.97;;;20.40;92.20;;;;;;4876373;29;20613;-79
2021/07/21 07:56:48;;;;;;;9.95;8.18;;;20.40;92.30;;;;;;4880184;29;20123;-78
2021/07/21 07:59:24;;;;;;;11.13;8.52;;;20.50;92.70;;;;;;4879213;29;20048;-78
2021/07/21 08:01:50;;;;;;;10.90;7.85;;;20.60;92.10;;;;;;4892163;29;20135;-78
2021/07/21 08:04:16;;;;;;;13.23;8.20;;;20.80;91.90;;;;;;4891684;29;20590;-77
2021/07/21 08:06:45;;;;;;;10.35;8.55;;;20.80;91.10;;;;;;4898483;29;20123;-77
2021/07/21 08:09:14;;;;;;;10.25;8.07;;;20.90;91.40;;;;;;4872179;29;20296;-74
2021/07/21 08:11:47;;;;;;;10.55;7.85;;;21.10;90.50;;;;;;4877781;29;20044;-74
2021/07/21 08:14:15;;;;;;;10.10;7.93;;;21.10;89.80;;;;;;4901042;29;20047;-73
2021/07/21 08:16:43;;;;;;;12.32;8.60;;;21.10;90.20;;;;;;4913977;29;20036;-74
2021/07/21 08:19:09;;;;;;;9.50;8.30;;;21.00;90.60;;;;;;4910442;29;20044;-74
2021/07/21 08:21:35;;;;;;;10.75;7.88;;;21.10;91.00;;;;;;4897418;29;20040;-73
2021/07/21 08:24:04;;;;;;;8.55;7.43;;;21.10;91.00;;;;;;4911061;29;20067;-74
2021/07/21 08:26:31;;;;;;;11.43;7.68;;;21.10;90.30;;;;;;4913137;29;20051;-74
2021/07/21 08:28:56;;;;;;;10.77;7.85;;;21.10;90.00;;;;;;4900665;29;20505;-75
2021/07/21 08:31:22;;;;;;;10.98;8.50;;;21.20;90.60;;;;;;4907570;29;20036;-75
2021/07/21 08:33:48;;;;;;;12.13;7.43;;;21.30;90.60;;;;;;4907500;29;20091;-74
2021/07/21 08:36:14;;;;;;;10.90;8.05;;;21.40;90.40;;;;;;4910700;29;20048;-74
2021/07/21 08:38:40;;;;;;;10.35;8.02;;;21.40;90.00;;;;;;4886685;29;20044;-73
2021/07/21 08:41:07;;;;;;;8.65;7.28;;;21.50;89.90;;;;;;4908100;29;20506;-74
2021/07/21 08:43:36;;;;;;;11.60;8.05;;;21.60;89.60;;;;;;4893225;29;20043;-74
2021/07/21 08:46:03;;;;;;;10.25;8.43;;;21.70;89.70;;;;;;4886704;29;20068;-73
2021/07/21 08:48:29;;;;;;;10.45;8.18;;;21.80;88.50;;;;;;4906716;29;20047;-74
2021/07/21 08:50:56;;;;;;;10.73;7.70;;;21.90;89.60;;;;;;4887123;29;20052;-74
2021/07/21 08:53:22;;;;;;;8.77;7.05;;;21.90;86.20;;;;;;4908359;29;20503;-74
2021/07/21 08:55:49;;;;;;;11.07;7.72;;;21.90;85.00;;;;;;4907277;29;20720;-74
2021/07/21 08:58:18;;;;;;;11.13;7.07;;;22.00;86.10;;;;;;4894525;29;20036;-74
2021/07/21 09:00:45;;;;;;;9.15;7.25;;;22.00;84.50;;;;;;4890753;29;20045;-73
2021/07/21 09:03:11;;;;;;;9.25;7.00;;;22.10;85.70;;;;;;4874580;29;20160;-74
2021/07/21 09:05:38;;;;;;;9.95;7.60;;;22.10;84.70;;;;;;4904992;29;20671;-73
2021/07/21 09:08:05;;;;;;;9.35;7.60;;;22.10;84.90;;;;;;4889142;29;20507;-74
2021/07/21 09:10:31;;;;;;;8.48;7.25;;;22.10;87.10;;;;;;4890929;29;20048;-74
2021/07/21 09:12:58;;;;;;;10.10;7.30;;;22.20;87.50;;;;;;4892137;29;20036;-74
2021/07/21 09:15:24;;;;;;;10.82;7.78;;;22.20;84.70;;;;;;4890087;29;20040;-74
2021/07/21 09:17:59;;;;;;;8.63;7.40;;;22.10;84.10;;;;;;4894964;29;20031;-75
2021/07/21 09:20:25;;;;;;;8.95;6.70;;;22.20;84.50;;;;;;4913005;29;20043;-74
2021/07/21 09:22:56;;;;;;;9.15;7.18;;;22.20;84.00;;;;;;4894343;29;20088;-75
2021/07/21 09:25:31;;;;;;;7.70;5.90;;;22.20;80.80;;;;;;4894272;29;20044;-75
2021/07/21 09:27:59;;;;;;;8.23;6.82;;;22.20;81.40;;;;;;4908510;29;20036;-74
2021/07/21 09:30:31;;;;;;;7.30;5.43;;;22.20;82.60;;;;;;4890913;29;20483;-74
2021/07/21 09:33:05;;;;;;;8.60;6.32;;;22.30;83.60;;;;;;4873641;29;20051;-74
2021/07/21 09:35:44;;;;;;;8.77;7.07;;;22.40;83.70;;;;;;4907799;29;20473;-73
2021/07/21 09:38:20;;;;;;;9.00;7.03;;;22.60;83.10;;;;;;4889940;29;20272;-74
2021/07/21 09:40:52;;;;;;;8.63;7.57;;;22.70;81.90;;;;;;4890905;29;20131;-74
2021/07/21 09:43:30;;;;;;;9.02;6.95;;;22.70;81.10;;;;;;4909634;29;20487;-75
2021/07/21 09:46:05;;;;;;;8.70;7.07;;;22.70;76.90;;;;;;4912250;29;20051;-74
2021/07/21 09:48:50;;;;;;;9.18;6.32;;;22.70;76.40;;;;;;4879174;29;20091;-75
2021/07/21 09:51:45;;;;;;;10.05;7.53;;;22.70;77.60;;;;;;4862470;29;20047;-74
2021/07/21 09:54:19;;;;;;;10.77;8.05;;;22.90;80.00;;;;;;4901367;29;20503;-75
2021/07/21 09:56:48;;;;;;;10.43;8.15;;;23.00;78.70;;;;;;4894222;29;20475;-75
2021/07/21 09:59:24;;;;;;;10.48;8.45;;;23.00;78.10;;;;;;4890915;29;20044;-75
2021/07/21 10:01:51;;;;;;;13.60;8.73;;;23.10;76.30;;;;;;4893790;29;20048;-74
2021/07/21 10:04:50;;;;;;;11.40;8.07;;;23.00;75.50;;;;;;4910080;29;20048;-75
2021/07/21 10:10:17;;;;;;;11.35;9.43;;;23.20;82.20;;;;;;4908818;29;20711;-74
2021/07/21 10:12:44;;;;;;;10.27;8.95;;;23.00;79.70;;;;;;4907983;29;20096;-80
2021/07/21 10:15:22;;;;;;;9.90;7.90;;;22.90;81.80;;;;;;4891626;29;20075;-80
2021/07/21 10:18:04;;;;;;;10.75;7.93;;;23.00;81.50;;;;;;4877248;29;20040;-81
2021/07/21 10:20:31;;;;;;;12.57;8.98;;;23.20;80.80;;;;;;4904873;29;20039;-81
2021/07/21 10:22:57;;;;;;;11.18;8.68;;;23.30;81.40;;;;;;4892710;29;20047;-81
2021/07/21 10:25:24;;;;;;;10.73;8.20;;;23.40;81.40;;;;;;4906611;29;20127;-81
2021/07/21 10:27:50;;;;;;;9.88;8.55;;;23.60;80.00;;;;;;4869441;29;20040;-82
2021/07/21 10:30:16;;;;;;;9.73;7.88;;;23.80;78.30;;;;;;4886013;29;20527;-81
2021/07/21 10:32:43;;;;;;;11.82;8.40;;;23.80;78.60;;;;;;4898952;29;20403;-75
2021/07/21 10:35:10;;;;;;;9.45;8.07;;;23.70;77.00;;;;;;4890074;29;20083;-76
2021/07/21 10:37:37;;;;;;;9.60;7.68;;;23.70;74.10;;;;;;4873957;29;20048;-75
2021/07/21 10:40:06;;;;;;;11.85;9.13;;;23.60;76.00;;;;;;4897474;29;20825;-76
2021/07/21 10:42:32;;;;;;;10.13;8.67;;;23.50;75.80;;;;;;4901324;29;20047;-81
2021/07/21 10:45:14;;;;;;;11.85;8.55;;;23.60;78.50;;;;;;4880715;29;20047;-81
2021/07/21 10:47:52;;;;;;;12.98;9.30;;;23.70;75.50;;;;;;4886704;29;20060;-82
2021/07/21 10:53:33;;;;;;;9.55;8.10;;;24.00;78.00;;;;;;4906413;29;20040;-82
2021/07/21 10:59:13;;;;;;;10.10;8.35;;;24.20;76.60;;;;;;4894704;29;20135;-76
2021/07/21 11:01:47;;;;;;;9.25;7.75;;;24.20;76.70;;;;;;4904382;29;20439;-76
2021/07/21 11:04:13;;;;;;;12.38;9.32;;;24.10;75.20;;;;;;4914166;29;20036;-81
2021/07/21 11:06:50;;;;;;;11.77;8.80;;;24.20;76.10;;;;;;4880912;29;20119;-82
2021/07/21 11:09:16;;;;;;;8.70;7.80;;;24.40;77.50;;;;;;4890937;29;20040;-82
2021/07/21 11:11:43;;;;;;;9.18;7.93;;;24.30;72.90;;;;;;4913959;29;20055;-82
2021/07/21 11:14:14;;;;;;;10.80;8.57;;;24.10;72.10;;;;;;4878987;29;20487;-81
2021/07/21 11:16:45;;;;;;;10.25;8.00;;;24.10;75.00;;;;;;4919040;29;20071;-82
2021/07/21 11:19:31;;;;;;;11.15;8.23;;;24.00;73.30;;;;;;4872917;29;20396;-82
2021/07/21 11:22:03;;;;;;;11.23;8.93;;;24.10;69.50;;;;;;4911451;29;20155;-81
2021/07/21 11:24:30;;;;;;;10.63;8.13;;;24.10;72.30;;;;;;4886946;29;20080;-81
2021/07/21 11:26:57;;;;;;;10.80;7.85;;;24.10;75.50;;;;;;4876562;29;20051;-80
2021/07/21 11:29:23;;;;;;;9.63;7.75;;;24.10;75.00;;;;;;4900906;29;20048;-80
2021/07/21 11:31:49;;;;;;;10.35;7.70;;;24.10;74.50;;;;;;4907336;29;20099;-82
2021/07/21 11:34:26;;;;;;;10.27;7.75;;;24.20;73.80;;;;;;4884551;29;20047;-75
2021/07/21 11:36:56;;;;;;;9.32;8.02;;;24.20;73.60;;;;;;4905915;29;20051;-75
2021/07/21 11:39:47;;;;;;;9.60;7.82;;;24.00;74.30;;;;;;4902964;29;20052;-75
2021/07/21 11:42:38;;;;;;;8.63;6.82;;;23.90;75.00;;;;;;4889813;29;20044;-75
2021/07/21 11:45:06;;;;;;;9.43;7.88;;;23.90;76.20;;;;;;4905869;29;20044;-74
2021/07/21 11:47:37;;;;;;;10.48;7.85;;;23.80;77.30;;;;;;4889767;29;20048;-74
2021/07/21 11:50:09;;;;;;;8.77;7.50;;;23.70;75.70;;;;;;4888575;29;20048;-75
2021/07/21 11:52:35;;;;;;;12.68;7.57;;;23.70;77.50;;;;;;4890376;29;20050;-75
2021/07/21 11:55:01;;;;;;;9.27;7.75;;;23.50;79.60;;;;;;4872066;29;20055;-75
2021/07/21 11:57:28;;;;;;;11.02;7.97;;;23.50;82.00;;;;;;4888955;29;20032;-75
2021/07/21 12:00:01;;;;;;;9.90;8.52;;;23.40;81.90;;;;;;4890604;29;20046;-74
2021/07/21 12:02:27;;;;;;;8.77;7.88;;;23.50;82.10;;;;;;4904113;29;20135;-75
2021/07/21 12:04:58;;;;;;;9.85;8.07;;;23.50;82.40;;;;;;4886201;29;20048;-75
2021/07/21 12:07:32;;;;;;;9.25;7.57;;;23.50;80.10;;;;;;4881215;29;20045;-75
2021/07/21 12:09:58;;;;;;;9.95;8.30;;;23.60;79.10;;;;;;4892542;29;20054;-74
2021/07/21 12:12:26;;;;;;;10.75;8.05;;;23.60;78.50;;;;;;4909710;29;20044;-74
2021/07/21 12:14:54;;;;;;;9.10;7.60;;;23.60;76.50;;;;;;4889736;29;21295;-75
2021/07/21 12:17:22;;;;;;;10.00;8.50;;;23.60;77.70;;;;;;4882941;29;20044;-75
2021/07/21 12:20:00;;;;;;;10.50;7.50;;;23.60;81.60;;;;;;4890227;29;20052;-75
2021/07/21 12:22:29;;;;;;;10.20;8.35;;;23.60;78.20;;;;;;4874862;29;20060;-74
2021/07/21 12:25:01;;;;;;;10.25;7.53;;;23.40;77.40;;;;;;4876768;29;20171;-75
2021/07/21 12:27:41;;;;;;;10.70;8.23;;;23.30;76.60;;;;;;4885525;29;20523;-75
2021/07/21 12:30:11;;;;;;;9.20;7.82;;;23.20;76.50;;;;;;4895417;29;20510;-75
2021/07/21 12:32:38;;;;;;;8.75;7.22;;;23.10;77.60;;;;;;4894691;29;20507;-75
2021/07/21 12:35:11;;;;;;;10.52;7.72;;;23.00;80.70;;;;;;4878682;29;20056;-75
2021/07/21 12:37:42;;;;;;;10.73;8.45;;;22.90;81.20;;;;;;4872322;29;20072;-74
2021/07/21 12:40:12;;;;;;;9.43;7.78;;;22.90;81.10;;;;;;4911410;29;20504;-76
2021/07/21 12:42:39;;;;;;;10.93;7.53;;;22.90;82.90;;;;;;4913561;29;20143;-75
2021/07/21 12:45:12;;;;;;;10.82;7.35;;;22.90;82.10;;;;;;4910174;29;20040;-75
2021/07/21 12:47:46;;;;;;;9.50;7.53;;;22.90;80.60;;;;;;4891089;29;20432;-75
2021/07/21 12:50:14;;;;;;;9.82;7.10;;;23.00;79.50;;;;;;4880100;29;20044;-75
2021/07/21 12:52:45;;;;;;;8.95;7.82;;;23.00;79.70;;;;;;4894680;29;20052;-75
2021/07/21 12:55:16;;;;;;;9.70;7.20;;;23.10;78.40;;;;;;4892477;29;20439;-76
2021/07/21 12:57:51;;;;;;;9.98;7.47;;;23.20;77.00;;;;;;4878810;29;20042;-75
2021/07/21 13:00:25;;;;;;;10.52;8.38;;;23.30;79.00;;;;;;4883724;29;20068;-75